Time;durP1;ratioP1;P1;durP2;ratioP2;P2;SDS_P1;SDS_P2;PMS_P1;PMS_P2;Temp;Humidity;BMP_temperature;BMP_pressure;BME280_temperature;BME280_humidity;BME280_pressure;Samples;Min_cycle;Max_cycle;Signal;HPM_P1;HPM_P2
2021/01/09 00:00:30;;;;;;;;;;;;;;;-6.74;89.08;92978.66;1063433;55;20204;-83
2021/01/09 00:01:57;;;;;;;;;;;;;;;-6.77;89.35;92979.28;1065551;55;20173;-81
2021/01/09 00:02:57;;;;;;;;;;;;;;;-6.80;89.70;92977.31;1063860;55;20303;-82
2021/01/09 00:03:58;;;;;;;;;;;;;;;-6.83;89.67;92983.13;1065659;55;20184;-81
2021/01/09 00:04:59;;;;;;;;;;;;;;;-6.75;89.66;92979.75;1063483;55;20205;-83
2021/01/09 00:06:00;;;;;;;;;;;;;;;-6.69;89.58;92970.69;1063484;55;20161;-82
2021/01/09 00:07:01;;;;;;;;;;;;;;;-6.68;89.56;92974.03;1063468;55;20162;-82
2021/01/09 00:08:03;;;;;;;;;;;;;;;-6.71;90.04;92970.25;1061477;56;20177;-83
2021/01/09 00:09:04;;;;;;;;;;;;;;;-6.70;90.74;92974.37;1059435;56;20151;-82
2021/01/09 00:10:06;;;;;;;;;;;;;;;-6.62;90.15;92968.38;1061488;55;20158;-83
2021/01/09 00:11:06;;;;;;;;;;;;;;;-6.56;89.87;92976.00;1063538;55;20185;-81
2021/01/09 00:12:12;;;;;;;;;;;;;;;-6.65;90.41;92970.84;1063352;55;21129;-81
2021/01/09 00:13:13;;;;;;;;;;;;;;;-6.66;90.41;92970.06;1063537;55;20188;-81
2021/01/09 00:14:15;;;;;;;;;;;;;;;-6.55;90.00;92961.91;1059304;56;20166;-83
2021/01/09 00:15:16;;;;;;;;;;;;;;;-6.36;88.66;92964.91;1061437;56;20162;-82
2021/01/09 00:16:16;;;;;;;;;;;;;;;-6.39;88.39;92962.94;1059161;56;20154;-81
2021/01/09 00:17:17;;;;;;;;;;;;;;;-6.39;88.33;92963.69;1059171;56;20147;-82
2021/01/09 00:18:18;;;;;;;;;;;;;;;-6.48;88.43;92962.97;1061299;56;20196;-82
2021/01/09 00:19:18;;;;;;;;;;;;;;;-6.55;89.19;92962.69;1061408;56;20161;-82
2021/01/09 00:20:19;;;;;;;;;;;;;;;-6.59;89.38;92965.13;1063385;55;21049;-83
2021/01/09 00:21:20;;;;;;;;;;;;;;;-6.60;89.31;92963.63;1063455;55;20560;-82
2021/01/09 00:22:20;;;;;;;;;;;;;;;-6.51;89.35;92968.03;1063509;55;20263;-82
2021/01/09 00:23:20;;;;;;;;;;;;;;;-6.63;89.84;92969.47;1061274;56;20564;-82
2021/01/09 00:24:21;;;;;;;;;;;;;;;-6.67;89.50;92973.75;1061365;56;20189;-83
2021/01/09 00:25:21;;;;;;;;;;;;;;;-6.70;89.63;92974.37;1063580;55;20192;-82
2021/01/09 00:26:23;;;;;;;;;;;;;;;-6.69;89.13;92975.88;1061356;56;20157;-81
2021/01/09 00:27:23;;;;;;;;;;;;;;;-6.51;89.09;92962.81;1061395;56;20158;-83
2021/01/09 00:28:24;;;;;;;;;;;;;;;-6.64;88.90;92975.72;1063365;55;20563;-81
2021/01/09 00:29:25;;;;;;;;;;;;;;;-6.62;89.24;92967.63;1065664;55;20192;-83
2021/01/09 00:30:25;;;;;;;;;;;;;;;-6.65;89.36;92973.44;1063496;55;20587;-82
2021/01/09 00:31:26;;;;;;;;;;;;;;;-6.65;89.55;92963.78;1061286;56;20158;-81
2021/01/09 00:32:26;;;;;;;;;;;;;;;-6.67;89.45;92971.16;1063418;55;20587;-82
2021/01/09 00:33:27;;;;;;;;;;;;;;;-6.43;89.17;92962.78;1065738;55;20604;-82
2021/01/09 00:34:27;;;;;;;;;;;;;;;-6.59;89.05;92967.72;1063469;55;20162;-83
2021/01/09 00:35:28;;;;;;;;;;;;;;;-6.63;89.57;92972.06;1063507;55;20582;-82
2021/01/09 00:36:29;;;;;;;;;;;;;;;-6.54;89.89;92960.84;1063356;55;20162;-82
2021/01/09 00:37:30;;;;;;;;;;;;;;;-6.47;89.29;92961.13;1063310;55;20157;-83
2021/01/09 00:38:30;;;;;;;;;;;;;;;-6.42;89.15;92963.53;1063415;55;20578;-81
2021/01/09 00:39:31;;;;;;;;;;;;;;;-6.29;89.02;92967.00;1061554;56;20170;-82
2021/01/09 00:40:31;;;;;;;;;;;;;;;-6.39;88.95;92962.94;1059333;56;20193;-81
2021/01/09 00:41:32;;;;;;;;;;;;;;;-6.36;89.12;92970.12;1063526;55;20180;-83
2021/01/09 00:42:39;;;;;;;;;;;;;;;-6.38;88.93;92961.84;1063485;55;20306;-83
2021/01/09 00:43:39;;;;;;;;;;;;;;;-6.47;89.09;92968.94;1059405;56;20166;-82
2021/01/09 00:44:40;;;;;;;;;;;;;;;-6.47;89.13;92967.09;1059151;56;20154;-82
2021/01/09 00:45:40;;;;;;;;;;;;;;;-6.44;88.75;92960.50;1061231;56;20259;-83
2021/01/09 00:46:41;;;;;;;;;;;;;;;-6.38;88.55;92967.81;1059164;56;20666;-83
2021/01/09 00:47:41;;;;;;;;;;;;;;;-6.35;88.14;92964.59;1061483;56;20323;-82
2021/01/09 00:48:42;;;;;;;;;;;;;;;-6.37;87.91;92971.16;1065914;55;20153;-82
2021/01/09 00:49:42;;;;;;;;;;;;;;;-6.42;88.60;92969.50;1063489;55;20224;-81
2021/01/09 00:50:43;;;;;;;;;;;;;;;-6.47;88.85;92961.88;1063399;55;20161;-83
2021/01/09 00:51:45;;;;;;;;;;;;;;;-6.53;89.23;92962.38;1061456;55;20173;-81
2021/01/09 00:52:47;;;;;;;;;;;;;;;-6.54;89.56;92963.44;1063525;55;20166;-83
2021/01/09 00:53:47;;;;;;;;;;;;;;;-6.56;89.75;92963.00;1063445;55;20993;-82
2021/01/09 00:54:48;;;;;;;;;;;;;;;-6.55;89.37;92961.91;1064752;55;20289;-83
2021/01/09 00:55:48;;;;;;;;;;;;;;;-6.55;89.04;92962.69;1065508;55;20165;-82
2021/01/09 00:56:54;;;;;;;;;;;;;;;-6.42;88.69;92960.94;1065423;55;20184;-83
2021/01/09 00:57:55;;;;;;;;;;;;;;;-6.43;88.08;92960.19;1061377;56;21277;-84
2021/01/09 00:58:55;;;;;;;;;;;;;;;-6.38;87.88;92962.59;1061493;56;20154;-84
2021/01/09 00:59:56;;;;;;;;;;;;;;;-6.46;88.42;92962.66;1065571;55;20323;-81
2021/01/09 01:00:56;;;;;;;;;;;;;;;-6.56;88.83;92958.56;1065659;55;20150;-82
2021/01/09 01:01:58;;;;;;;;;;;;;;;-6.57;89.36;92954.44;1063407;55;20158;-83
2021/01/09 01:02:59;;;;;;;;;;;;;;;-6.61;89.50;92951.69;1065600;55;20185;-83
2021/01/09 01:03:59;;;;;;;;;;;;;;;-6.56;89.35;92952.59;1067696;55;20244;-81
2021/01/09 01:05:00;;;;;;;;;;;;;;;-6.63;89.00;92956.47;1065628;55;20571;-82
2021/01/09 01:06:00;;;;;;;;;;;;;;;-6.62;89.52;92952.03;1065636;55;20680;-82
2021/01/09 01:07:01;;;;;;;;;;;;;;;-6.64;89.76;92957.53;1063340;55;20653;-83
2021/01/09 01:08:01;;;;;;;;;;;;;;;-6.56;89.25;92947.41;1061387;56;20300;-81
2021/01/09 01:09:02;;;;;;;;;;;;;;;-6.54;89.12;92947.84;1061358;56;20287;-83
2021/01/09 01:10:03;;;;;;;;;;;;;;;-6.44;88.91;92952.72;1059259;56;20159;-82
2021/01/09 01:11:04;;;;;;;;;;;;;;;-6.35;88.17;92945.63;1059299;56;20184;-82
2021/01/09 01:12:05;;;;;;;;;;;;;;;-6.34;88.04;92953.09;1063462;55;20158;-82
2021/01/09 01:13:11;;;;;;;;;;;;;;;-6.42;88.52;92950.53;1065727;55;20719;-81
2021/01/09 01:14:12;;;;;;;;;;;;;;;-6.49;89.28;92952.88;1063436;55;20193;-83
2021/01/09 01:15:16;;;;;;;;;;;;;;;-6.56;89.62;92950.75;1061529;55;20692;-82
2021/01/09 01:16:17;;;;;;;;;;;;;;;-6.57;89.76;92953.69;1065634;55;20262;-83
2021/01/09 01:17:19;;;;;;;;;;;;;;;-6.59;90.05;92952.13;1065583;55;20657;-83
2021/01/09 01:18:21;;;;;;;;;;;;;;;-6.63;89.75;92960.88;1063421;55;20166;-82
2021/01/09 01:19:23;;;;;;;;;;;;;;;-6.56;89.95;92953.38;1063378;55;20162;-82
2021/01/09 01:20:24;;;;;;;;;;;;;;;-6.57;89.76;92957.03;1063265;55;20177;-83
2021/01/09 01:21:24;;;;;;;;;;;;;;;-6.45;89.32;92956.38;1065635;55;20188;-82
2021/01/09 01:22:29;;;;;;;;;;;;;;;-6.43;89.31;92956.81;1065551;55;20166;-84
2021/01/09 01:23:29;;;;;;;;;;;;;;;-6.48;89.61;92952.56;1063285;56;20185;-83
2021/01/09 01:24:30;;;;;;;;;;;;;;;-6.48;89.92;92960.38;1063347;56;20177;-82
2021/01/09 01:25:31;;;;;;;;;;;;;;;-6.51;89.93;92962.81;1061238;56;20202;-82
2021/01/09 01:26:32;;;;;;;;;;;;;;;-6.46;89.56;92966.00;1063375;55;20186;-82
2021/01/09 01:27:32;;;;;;;;;;;;;;;-6.47;89.44;92963.72;1065459;55;20180;-82
2021/01/09 01:28:33;;;;;;;;;;;;;;;-6.46;90.09;92955.59;1061202;56;20662;-81
2021/01/09 01:29:34;;;;;;;;;;;;;;;-6.47;90.15;92959.28;1063433;55;20571;-81
2021/01/09 01:30:36;;;;;;;;;;;;;;;-6.49;90.53;92960.69;1065489;55;20160;-80
2021/01/09 01:31:36;;;;;;;;;;;;;;;-6.47;90.61;92961.13;1067583;55;20582;-82
2021/01/09 01:32:40;;;;;;;;;;;;;;;-6.47;90.40;92948.13;1063271;56;20185;-84
2021/01/09 01:33:40;;;;;;;;;;;;;;;-6.46;90.08;92960.03;1063310;56;20162;-81
2021/01/09 01:34:41;;;;;;;;;;;;;;;-6.38;90.38;92954.81;1063175;56;20274;-83
2021/01/09 01:35:41;;;;;;;;;;;;;;;-6.26;89.67;92954.16;1063408;56;20166;-83
2021/01/09 01:36:47;;;;;;;;;;;;;;;-6.23;88.79;92953.53;1065276;55;20162;-83
2021/01/09 01:37:47;;;;;;;;;;;;;;;-6.22;88.54;92955.03;1065639;55;20180;-85
2021/01/09 01:38:48;;;;;;;;;;;;;;;-6.34;88.86;92955.69;1065344;55;20173;-82
2021/01/09 01:39:50;;;;;;;;;;;;;;;-6.28;89.01;92953.69;1065515;55;20161;-82
2021/01/09 01:40:59;;;;;;;;;;;;;;;-6.23;88.34;92950.91;1065818;55;20165;-83
2021/01/09 01:42:00;;;;;;;;;;;;;;;-6.25;88.68;92950.47;1065548;55;20212;-81
2021/01/09 01:43:00;;;;;;;;;;;;;;;-6.39;89.00;92960.31;1065446;55;20165;-81
2021/01/09 01:44:01;;;;;;;;;;;;;;;-6.39;89.22;92948.09;1063285;56;21154;-82
2021/01/09 01:45:03;;;;;;;;;;;;;;;-6.38;89.92;92956.66;1061483;56;20158;-82
2021/01/09 01:46:05;;;;;;;;;;;;;;;-6.31;89.33;92962.12;1059045;56;20167;-82
2021/01/09 01:47:05;;;;;;;;;;;;;;;-6.46;89.20;92957.44;1063458;55;20168;-82
2021/01/09 01:48:13;;;;;;;;;;;;;;;-6.41;90.25;92967.66;1067928;55;20153;-83
2021/01/09 01:49:13;;;;;;;;;;;;;;;-6.23;89.05;92963.12;1065569;55;20176;-81
2021/01/09 01:50:16;;;;;;;;;;;;;;;-6.33;88.90;92959.06;1061261;56;20197;-82
2021/01/09 01:51:16;;;;;;;;;;;;;;;-6.31;88.52;92961.38;1061244;56;20662;-82
2021/01/09 01:52:18;;;;;;;;;;;;;;;-6.36;88.87;92965.66;1065533;55;20161;-81
2021/01/09 01:53:20;;;;;;;;;;;;;;;-6.23;88.68;92971.72;1063306;56;20643;-83
2021/01/09 01:54:22;;;;;;;;;;;;;;;-6.23;88.58;92966.53;1061041;56;20154;-81
2021/01/09 01:55:22;;;;;;;;;;;;;;;-6.28;89.42;92974.47;1061223;56;20189;-81
2021/01/09 01:56:23;;;;;;;;;;;;;;;-6.36;89.93;92972.72;1063156;56;20170;-82
2021/01/09 01:57:24;;;;;;;;;;;;;;;-6.35;89.69;92974.22;1065659;55;20645;-83
2021/01/09 01:58:24;;;;;;;;;;;;;;;-6.20;89.68;92967.72;1061244;56;20189;-83
2021/01/09 01:59:25;;;;;;;;;;;;;;;-6.20;90.57;92968.47;1061114;56;20256;-82
2021/01/09 02:00:27;;;;;;;;;;;;;;;-6.18;90.81;92970.78;1063217;56;20669;-82
2021/01/09 02:01:29;;;;;;;;;;;;;;;-6.23;91.08;92966.53;1063324;55;20734;-82
2021/01/09 02:02:29;;;;;;;;;;;;;;;-6.12;90.12;92970.28;1063332;56;20299;-82
2021/01/09 02:03:30;;;;;;;;;;;;;;;-6.06;89.31;92972.69;1061043;56;20276;-83
2021/01/09 02:04:30;;;;;;;;;;;;;;;-6.16;89.30;92971.22;1063419;56;20162;-82
2021/01/09 02:05:34;;;;;;;;;;;;;;;-6.20;89.81;92970.31;1063335;56;20689;-82
2021/01/09 02:06:35;;;;;;;;;;;;;;;-6.24;90.46;92967.59;1061219;56;20162;-81
2021/01/09 02:07:39;;;;;;;;;;;;;;;-6.31;90.04;92974.37;1061243;56;20177;-83
2021/01/09 02:08:51;;;;;;;;;;;;;;;-6.08;89.46;92973.00;1061224;56;20186;-83
2021/01/09 02:09:56;;;;;;;;;;;;;;;-6.25;89.30;92971.25;1066289;55;20161;-82
2021/01/09 02:11:00;;;;;;;;;;;;;;;-6.22;89.80;92969.88;1063723;55;20217;-85
2021/01/09 02:12:07;;;;;;;;;;;;;;;-6.10;89.54;92972.59;1063809;55;20294;-82
2021/01/09 02:13:19;;;;;;;;;;;;;;;-6.13;90.36;92971.34;1065869;55;20161;-82
2021/01/09 02:14:31;;;;;;;;;;;;;;;-6.09;90.52;92969.66;1064165;55;20185;-83
2021/01/09 02:15:33;;;;;;;;;;;;;;;-6.18;90.69;92976.00;1063604;55;20738;-82
2021/01/09 02:16:34;;;;;;;;;;;;;;;-6.20;90.85;92976.28;1059386;56;20188;-82
2021/01/09 02:17:36;;;;;;;;;;;;;;;-6.19;91.03;92977.84;1059499;56;20715;-82
2021/01/09 02:18:38;;;;;;;;;;;;;;;-6.23;90.48;92973.53;1059360;56;20718;-83
2021/01/09 02:19:40;;;;;;;;;;;;;;;-6.14;90.46;92976.88;1059444;56;20675;-85
2021/01/09 02:20:42;;;;;;;;;;;;;;;-6.22;90.41;92970.66;1063747;55;20191;-82
2021/01/09 02:21:44;;;;;;;;;;;;;;;-6.26;90.84;92972.34;1063757;55;20252;-82
2021/01/09 02:22:45;;;;;;;;;;;;;;;-6.05;90.15;92974.25;1061504;56;20579;-82
2021/01/09 02:23:45;;;;;;;;;;;;;;;-6.02;89.60;92979.56;1061373;56;20154;-83
2021/01/09 02:24:46;;;;;;;;;;;;;;;-6.11;89.81;92966.59;1059362;56;20801;-82
2021/01/09 02:25:46;;;;;;;;;;;;;;;-6.10;89.94;92973.34;1061540;55;20626;-83
2021/01/09 02:26:48;;;;;;;;;;;;;;;-6.11;89.82;92974.41;1063656;55;20192;-81
2021/01/09 02:27:49;;;;;;;;;;;;;;;-5.99;89.75;92971.13;1061431;56;20577;-83
2021/01/09 02:28:49;;;;;;;;;;;;;;;-6.05;89.91;92979.44;1061377;56;20158;-83
2021/01/09 02:29:55;;;;;;;;;;;;;;;-6.02;89.91;92984.00;1061513;56;20177;-83
2021/01/09 02:30:58;;;;;;;;;;;;;;;-6.04;89.96;92978.34;1059580;56;20263;-82
2021/01/09 02:32:03;;;;;;;;;;;;;;;-6.08;90.51;92980.81;1061542;56;20157;-83
2021/01/09 02:33:07;;;;;;;;;;;;;;;-6.15;91.23;92986.50;1063775;55;20177;-84
2021/01/09 02:34:09;;;;;;;;;;;;;;;-6.15;90.90;92975.34;1065364;55;20233;-82
2021/01/09 02:35:11;;;;;;;;;;;;;;;-6.10;90.70;92972.59;1059257;56;20268;-83
2021/01/09 02:36:14;;;;;;;;;;;;;;;-5.81;90.07;92974.34;1059631;56;20277;-83
2021/01/09 02:37:15;;;;;;;;;;;;;;;-5.85;89.35;92973.44;1061500;56;20268;-83
2021/01/09 02:38:19;;;;;;;;;;;;;;;-5.92;89.88;92976.59;1061574;56;20590;-82
2021/01/09 02:39:20;;;;;;;;;;;;;;;-5.89;91.03;92968.13;1063743;55;20184;-82
2021/01/09 02:40:20;;;;;;;;;;;;;;;-5.86;91.07;92975.28;1063496;55;20146;-81
2021/01/09 02:41:26;;;;;;;;;;;;;;;-5.79;90.36;92980.00;1063799;55;20606;-80
2021/01/09 02:42:28;;;;;;;;;;;;;;;-5.77;89.62;92975.25;1063617;55;20197;-83
2021/01/09 02:43:29;;;;;;;;;;;;;;;-5.77;89.40;92977.09;1061399;56;20650;-82
2021/01/09 02:44:31;;;;;;;;;;;;;;;-5.84;89.98;92986.16;1057316;56;20309;-82
2021/01/09 02:45:32;;;;;;;;;;;;;;;-5.87;90.18;92978.97;1059355;56;20170;-82
2021/01/09 02:46:35;;;;;;;;;;;;;;;-5.87;90.63;92986.03;1063741;55;20162;-82
2021/01/09 02:47:36;;;;;;;;;;;;;;;-5.90;90.66;92981.44;1063654;55;20162;-84
2021/01/09 02:48:36;;;;;;;;;;;;;;;-5.98;91.11;92977.84;1061400;56;21149;-82
2021/01/09 02:49:37;;;;;;;;;;;;;;;-6.01;91.27;92978.50;1063637;55;20192;-83
2021/01/09 02:50:39;;;;;;;;;;;;;;;-6.05;91.69;92982.81;1065673;55;20571;-82
2021/01/09 02:51:40;;;;;;;;;;;;;;;-6.05;91.69;92980.19;1063523;55;20262;-82
2021/01/09 02:52:41;;;;;;;;;;;;;;;-5.95;91.65;92984.28;1061340;56;20177;-83
2021/01/09 02:53:41;;;;;;;;;;;;;;;-5.97;91.63;92982.00;1063621;55;20185;-82
2021/01/09 02:54:42;;;;;;;;;;;;;;;-5.89;91.99;92983.72;1064706;55;20185;-82
2021/01/09 02:55:42;;;;;;;;;;;;;;;-5.91;91.82;92983.28;1061542;56;20147;-82
2021/01/09 02:56:44;;;;;;;;;;;;;;;-5.89;91.50;92983.72;1063602;55;20174;-83
2021/01/09 02:57:44;;;;;;;;;;;;;;;-5.85;91.53;92983.88;1065798;55;20626;-81
2021/01/09 02:58:45;;;;;;;;;;;;;;;-5.85;91.59;92982.03;1061395;56;20174;-81
2021/01/09 02:59:45;;;;;;;;;;;;;;;-5.86;91.21;92985.72;1061374;56;20259;-82
2021/01/09 03:00:46;;;;;;;;;;;;;;;-5.84;91.13;92985.38;1063655;55;20938;-83
2021/01/09 03:01:47;;;;;;;;;;;;;;;-5.87;91.44;92980.81;1063637;55;20158;-81
2021/01/09 03:02:48;;;;;;;;;;;;;;;-5.85;91.18;92989.06;1063490;55;20654;-81
2021/01/09 03:03:48;;;;;;;;;;;;;;;-5.82;91.12;92981.41;1063647;55;20251;-82
2021/01/09 03:04:49;;;;;;;;;;;;;;;-5.84;91.10;92982.78;1065599;55;20313;-82
2021/01/09 03:05:49;;;;;;;;;;;;;;;-5.79;91.39;92984.44;1063560;55;20176;-83
2021/01/09 03:06:49;;;;;;;;;;;;;;;-5.83;91.36;92981.72;1063560;55;20197;-82
2021/01/09 03:07:51;;;;;;;;;;;;;;;-5.85;91.70;92981.25;1063540;55;20197;-82
2021/01/09 03:08:53;;;;;;;;;;;;;;;-5.80;91.35;92988.87;1065713;55;20174;-81
2021/01/09 03:09:53;;;;;;;;;;;;;;;-5.65;90.69;92982.38;1065601;55;20180;-82
2021/01/09 03:10:53;;;;;;;;;;;;;;;-5.72;90.44;92985.47;1063379;55;20248;-82
2021/01/09 03:11:54;;;;;;;;;;;;;;;-5.77;90.51;92985.66;1063668;55;20153;-81
2021/01/09 03:12:54;;;;;;;;;;;;;;;-5.74;90.64;92985.03;1063567;55;20184;-82
2021/01/09 03:13:55;;;;;;;;;;;;;;;-5.76;91.10;92984.56;1063542;55;20259;-82
2021/01/09 03:14:55;;;;;;;;;;;;;;;-5.68;92.07;92991.56;1065715;55;20185;-82
2021/01/09 03:15:56;;;;;;;;;;;;;;;-5.64;91.47;92989.09;1063465;55;20161;-83
2021/01/09 03:17:01;;;;;;;;;;;;;;;-5.66;90.66;92980.84;1063551;55;20161;-84
2021/01/09 03:18:01;;;;;;;;;;;;;;;-5.72;90.50;92982.84;1063435;55;20154;-82
2021/01/09 03:19:02;;;;;;;;;;;;;;;-5.74;90.67;92984.28;1065722;55;20700;-82
2021/01/09 03:20:03;;;;;;;;;;;;;;;-5.72;90.60;92990.66;1065604;55;20161;-82
2021/01/09 03:21:05;;;;;;;;;;;;;;;-5.65;90.75;92988.31;1063424;55;20188;-82
2021/01/09 03:22:12;;;;;;;;;;;;;;;-5.68;90.75;92988.94;1063608;55;20200;-81
2021/01/09 03:23:12;;;;;;;;;;;;;;;-5.52;90.71;92978.75;1063494;55;20158;-81
2021/01/09 03:24:13;;;;;;;;;;;;;;;-5.51;89.74;92984.72;1065721;55;20173;-82
2021/01/09 03:25:13;;;;;;;;;;;;;;;-5.55;90.12;92981.22;1067819;55;20196;-82
2021/01/09 03:26:18;;;;;;;;;;;;;;;-5.52;90.29;92988.41;1061410;56;20162;-83
2021/01/09 03:27:19;;;;;;;;;;;;;;;-5.51;91.01;92990.69;1061460;56;20162;-81
2021/01/09 03:28:19;;;;;;;;;;;;;;;-5.50;91.16;92984.38;1065644;55;20680;-81
2021/01/09 03:29:21;;;;;;;;;;;;;;;-5.49;92.03;92982.53;1065563;55;20620;-81
2021/01/09 03:30:23;;;;;;;;;;;;;;;-5.48;92.00;92984.09;1063568;55;20193;-82
2021/01/09 03:31:24;;;;;;;;;;;;;;;-5.45;91.88;92984.19;1063591;55;20721;-82
2021/01/09 03:32:25;;;;;;;;;;;;;;;-5.46;91.72;92985.28;1063431;55;20185;-82
2021/01/09 03:33:25;;;;;;;;;;;;;;;-5.49;91.51;92990.34;1061423;56;20169;-84
2021/01/09 03:34:26;;;;;;;;;;;;;;;-5.42;92.01;92995.81;1061350;56;20642;-83
2021/01/09 03:35:27;;;;;;;;;;;;;;;-5.40;91.65;92988.44;1063534;55;20158;-81
2021/01/09 03:36:27;;;;;;;;;;;;;;;-5.40;91.75;92984.03;1063376;55;20236;-82
2021/01/09 03:37:28;;;;;;;;;;;;;;;-5.39;92.01;92985.53;1061265;56;20146;-81
2021/01/09 03:38:28;;;;;;;;;;;;;;;-5.35;91.74;92977.84;1061416;56;20162;-81
2021/01/09 03:39:29;;;;;;;;;;;;;;;-5.34;92.47;92979.38;1059256;56;20162;-84
2021/01/09 03:40:29;;;;;;;;;;;;;;;-5.26;92.32;92986.34;1059162;56;20154;-81
2021/01/09 03:41:30;;;;;;;;;;;;;;;-5.27;92.26;92982.19;1061279;56;20150;-82
2021/01/09 03:42:30;;;;;;;;;;;;;;;-5.24;91.74;92991.22;1061349;56;20635;-82
2021/01/09 03:43:31;;;;;;;;;;;;;;;-5.26;91.82;92988.97;1059206;56;20194;-82
2021/01/09 03:44:31;;;;;;;;;;;;;;;-5.25;92.10;92985.25;1059290;56;20175;-83
2021/01/09 03:45:32;;;;;;;;;;;;;;;-5.32;92.14;92988.37;1063682;55;20712;-83
2021/01/09 03:46:34;;;;;;;;;;;;;;;-5.32;92.49;92988.37;1065689;55;20217;-82
2021/01/09 03:47:37;;;;;;;;;;;;;;;-5.26;92.36;92988.19;1063586;55;20186;-82
2021/01/09 03:48:38;;;;;;;;;;;;;;;-5.22;92.29;92989.84;1059387;56;20194;-82
2021/01/09 03:49:39;;;;;;;;;;;;;;;-5.20;92.27;92986.91;1061322;56;20651;-83
2021/01/09 03:50:40;;;;;;;;;;;;;;;-5.21;92.70;92980.94;1063514;55;20244;-83
2021/01/09 03:51:41;;;;;;;;;;;;;;;-5.08;92.54;92974.69;1063423;55;20188;-86
2021/01/09 03:52:41;;;;;;;;;;;;;;;-5.12;91.95;92983.47;1059286;56;20166;-82
2021/01/09 03:53:42;;;;;;;;;;;;;;;-5.15;92.35;92989.31;1061431;56;20188;-82
2021/01/09 03:54:42;;;;;;;;;;;;;;;-5.12;92.72;92978.25;1061273;56;20174;-81
2021/01/09 03:55:44;;;;;;;;;;;;;;;-5.12;92.41;92986.84;1061528;55;20169;-82
2021/01/09 03:56:45;;;;;;;;;;;;;;;-5.07;92.50;92983.25;1061482;56;20254;-82
2021/01/09 03:57:46;;;;;;;;;;;;;;;-5.05;92.46;92983.69;1061526;56;20181;-82
2021/01/09 03:58:46;;;;;;;;;;;;;;;-5.07;92.33;92980.66;1063454;55;20162;-81
2021/01/09 03:59:47;;;;;;;;;;;;;;;-5.10;92.22;92976.84;1063458;55;20173;-83
2021/01/09 04:00:47;;;;;;;;;;;;;;;-5.09;92.64;92978.38;1061331;56;20158;-82
2021/01/09 04:01:48;;;;;;;;;;;;;;;-5.01;92.71;92981.22;1063414;55;20272;-82
2021/01/09 04:02:48;;;;;;;;;;;;;;;-5.01;92.49;92976.00;1065710;55;20191;-81
2021/01/09 04:03:48;;;;;;;;;;;;;;;-5.08;92.22;92984.34;1061350;56;20355;-81
2021/01/09 04:04:49;;;;;;;;;;;;;;;-5.13;92.79;92977.50;1061355;56;20150;-82
2021/01/09 04:05:49;;;;;;;;;;;;;;;-5.09;92.68;92973.16;1065763;55;20154;-83
2021/01/09 04:06:50;;;;;;;;;;;;;;;-5.05;92.68;92981.09;1065629;55;20150;-82
2021/01/09 04:07:50;;;;;;;;;;;;;;;-5.02;92.83;92980.47;1065696;55;20180;-82
2021/01/09 04:08:51;;;;;;;;;;;;;;;-5.03;92.50;92973.72;1065573;55;20185;-81
2021/01/09 04:09:51;;;;;;;;;;;;;;;-5.01;92.41;92973.41;1065651;55;20680;-83
2021/01/09 04:10:52;;;;;;;;;;;;;;;-5.02;92.82;92977.09;1063447;55;20162;-86
2021/01/09 04:11:52;;;;;;;;;;;;;;;-4.98;92.68;92970.91;1061353;56;20583;-84
2021/01/09 04:12:53;;;;;;;;;;;;;;;-4.98;92.75;92973.53;1063567;55;20162;-82
2021/01/09 04:13:55;;;;;;;;;;;;;;;-4.99;92.68;92969.41;1061435;56;20166;-84
2021/01/09 04:14:57;;;;;;;;;;;;;;;-4.93;92.10;92972.56;1061329;56;20162;-82
2021/01/09 04:15:57;;;;;;;;;;;;;;;-4.97;92.21;92969.81;1061274;56;20173;-83
2021/01/09 04:17:02;;;;;;;;;;;;;;;-4.97;92.52;92982.84;1063664;55;20740;-84
2021/01/09 04:18:05;;;;;;;;;;;;;;;-4.94;92.43;92981.47;1063738;55;20193;-81
2021/01/09 04:19:06;;;;;;;;;;;;;;;-4.97;92.52;92982.09;1065746;55;20646;-83
2021/01/09 04:20:07;;;;;;;;;;;;;;;-4.97;92.63;92971.66;1063426;55;20154;-80
2021/01/09 04:21:07;;;;;;;;;;;;;;;-4.94;93.14;92978.84;1061326;56;20673;-84
2021/01/09 04:22:07;;;;;;;;;;;;;;;-4.92;93.29;92977.44;1065535;55;20153;-82
2021/01/09 04:23:08;;;;;;;;;;;;;;;-4.94;92.84;92982.22;1061241;56;20165;-82
2021/01/09 04:24:11;;;;;;;;;;;;;;;-4.86;92.71;92985.84;1061408;56;20615;-83
2021/01/09 04:25:12;;;;;;;;;;;;;;;-4.86;92.78;92978.78;1059368;56;20754;-81
2021/01/09 04:26:13;;;;;;;;;;;;;;;-4.87;92.44;92974.66;1061352;56;20158;-82
2021/01/09 04:27:14;;;;;;;;;;;;;;;-4.95;92.62;92972.13;1059197;56;20305;-83
2021/01/09 04:28:17;;;;;;;;;;;;;;;-4.94;92.81;92976.25;1059313;56;20181;-82
2021/01/09 04:29:17;;;;;;;;;;;;;;;-4.92;92.66;92976.69;1059222;56;20601;-82
2021/01/09 04:30:18;;;;;;;;;;;;;;;-4.96;93.18;92979.19;1057002;56;20237;-82
2021/01/09 04:31:19;;;;;;;;;;;;;;;-4.90;92.56;92985.72;1061280;55;20189;-82
2021/01/09 04:32:19;;;;;;;;;;;;;;;-4.90;92.97;92980.50;1063244;55;20169;-83
2021/01/09 04:33:21;;;;;;;;;;;;;;;-4.91;92.23;92975.63;1059087;56;20730;-83
2021/01/09 04:34:23;;;;;;;;;;;;;;;-4.96;93.16;92979.19;1059292;56;20185;-82
2021/01/09 04:35:23;;;;;;;;;;;;;;;-4.97;92.92;92982.09;1059288;56;20174;-82
2021/01/09 04:36:24;;;;;;;;;;;;;;;-5.01;93.15;92981.97;1061250;56;20150;-82
2021/01/09 04:37:25;;;;;;;;;;;;;;;-4.99;92.97;92985.03;1063383;55;20642;-83
2021/01/09 04:38:25;;;;;;;;;;;;;;;-4.97;92.54;92987.31;1061396;56;20177;-83
2021/01/09 04:39:26;;;;;;;;;;;;;;;-4.91;92.66;92986.03;1061299;56;20177;-83
2021/01/09 04:40:26;;;;;;;;;;;;;;;-4.91;93.25;92978.97;1059233;56;20167;-84
2021/01/09 04:41:27;;;;;;;;;;;;;;;-4.96;92.93;92988.81;1059072;56;20162;-82
2021/01/09 04:42:27;;;;;;;;;;;;;;;-4.96;92.64;92986.22;1061292;56;20178;-82
2021/01/09 04:43:28;;;;;;;;;;;;;;;-4.96;92.84;92986.22;1061283;56;20639;-83
2021/01/09 04:44:28;;;;;;;;;;;;;;;-4.91;93.39;92981.59;1059113;56;20154;-81
2021/01/09 04:45:29;;;;;;;;;;;;;;;-4.91;92.09;92983.44;1059083;56;20154;-83
2021/01/09 04:46:31;;;;;;;;;;;;;;;-4.94;93.17;92981.47;1063598;55;20201;-82
2021/01/09 04:47:35;;;;;;;;;;;;;;;-4.94;92.90;92981.47;1061366;56;21030;-84
2021/01/09 04:48:36;;;;;;;;;;;;;;;-4.91;92.58;92981.59;1059303;56;20162;-84
2021/01/09 04:49:37;;;;;;;;;;;;;;;-4.97;93.07;92984.69;1059141;56;20173;-83
2021/01/09 04:50:39;;;;;;;;;;;;;;;-5.00;93.26;92980.13;1061432;55;20162;-85
2021/01/09 04:51:41;;;;;;;;;;;;;;;-4.95;92.95;92977.34;1063414;55;20161;-83
2021/01/09 04:52:41;;;;;;;;;;;;;;;-4.90;92.78;92975.28;1059204;56;20159;-81
2021/01/09 04:53:43;;;;;;;;;;;;;;;-4.86;92.73;92981.37;1061391;55;21304;-82
2021/01/09 04:54:44;;;;;;;;;;;;;;;-4.95;92.98;92982.56;1064634;55;20224;-84
2021/01/09 04:55:45;;;;;;;;;;;;;;;-4.95;92.73;92995.59;1065629;55;20162;-82
2021/01/09 04:56:47;;;;;;;;;;;;;;;-4.91;93.50;92986.03;1065502;55;21099;-82
2021/01/09 04:57:49;;;;;;;;;;;;;;;-4.90;93.18;92984.94;1063522;55;20178;-82
2021/01/09 04:58:52;;;;;;;;;;;;;;;-4.89;92.69;92986.47;1065641;55;21265;-83
2021/01/09 04:59:53;;;;;;;;;;;;;;;-4.90;92.91;92988.31;1065724;55;20191;-83
2021/01/09 05:00:55;;;;;;;;;;;;;;;-4.89;93.04;92982.00;1063430;55;20169;-83
2021/01/09 05:01:58;;;;;;;;;;;;;;;-4.81;93.47;92988.22;1061441;56;20635;-84
2021/01/09 05:02:59;;;;;;;;;;;;;;;-4.78;93.17;92992.81;1063318;55;20166;-82
2021/01/09 05:03:59;;;;;;;;;;;;;;;-4.77;93.48;92989.13;1065599;55;20657;-81
2021/01/09 05:05:00;;;;;;;;;;;;;;;-4.75;92.78;92986.94;1065585;55;20206;-81
2021/01/09 05:06:00;;;;;;;;;;;;;;;-4.69;92.49;92987.50;1063423;55;20181;-82
2021/01/09 05:07:02;;;;;;;;;;;;;;;-4.66;92.76;92985.00;1063453;55;20185;-82
2021/01/09 05:08:03;;;;;;;;;;;;;;;-4.61;92.83;92987.41;1063349;55;20146;-82
2021/01/09 05:09:03;;;;;;;;;;;;;;;-4.66;92.79;92987.59;1065675;55;20686;-83
2021/01/09 05:10:04;;;;;;;;;;;;;;;-4.60;92.70;92985.56;1063383;55;20177;-84
2021/01/09 05:11:05;;;;;;;;;;;;;;;-4.60;92.54;92988.94;1061322;56;20599;-82
2021/01/09 05:12:06;;;;;;;;;;;;;;;-4.56;92.47;92982.00;1063520;55;20242;-82
2021/01/09 05:13:07;;;;;;;;;;;;;;;-4.58;92.46;92988.59;1065776;55;20830;-83
2021/01/09 05:14:10;;;;;;;;;;;;;;;-4.57;91.94;92988.25;1065696;55;20572;-82
2021/01/09 05:15:11;;;;;;;;;;;;;;;-4.53;92.81;92987.63;1065576;55;20200;-83
2021/01/09 05:16:12;;;;;;;;;;;;;;;-4.53;93.14;92991.00;1065585;55;20569;-83
2021/01/09 05:17:13;;;;;;;;;;;;;;;-4.60;93.20;92990.78;1065634;55;20164;-82
2021/01/09 05:18:16;;;;;;;;;;;;;;;-4.57;92.71;92993.47;1065692;55;20714;-82
2021/01/09 05:19:16;;;;;;;;;;;;;;;-4.61;92.74;92989.25;1063443;55;20154;-84
2021/01/09 05:20:19;;;;;;;;;;;;;;;-4.61;93.11;92995.25;1063432;55;20262;-83